sensor_id;sensor_type;location;lat;lon;timestamp;P1;durP1;ratioP1;P2;durP2;ratioP2
63975;SDS011;50167;47.958;21.780;2023-06-22T00:00:58;11.95;;;10.25;;
63975;SDS011;50167;47.958;21.780;2023-06-22T00:03:24;16.85;;;10.82;;
63975;SDS011;50167;47.958;21.780;2023-06-22T00:05:51;12.58;;;11.10;;
63975;SDS011;50167;47.958;21.780;2023-06-22T00:08:18;20.32;;;11.15;;
63975;SDS011;50167;47.958;21.780;2023-06-22T00:10:45;15.10;;;10.00;;
63975;SDS011;50167;47.958;21.780;2023-06-22T00:13:13;13.58;;;10.23;;
63975;SDS011;50167;47.958;21.780;2023-06-22T00:15:41;15.40;;;11.20;;
63975;SDS011;50167;47.958;21.780;2023-06-22T00:18:08;13.45;;;11.00;;
63975;SDS011;50167;47.958;21.780;2023-06-22T00:20:36;16.77;;;11.97;;
63975;SDS011;50167;47.958;21.780;2023-06-22T00:23:03;12.95;;;10.78;;
63975;SDS011;50167;47.958;21.780;2023-06-22T00:25:37;17.15;;;10.75;;
63975;SDS011;50167;47.958;21.780;2023-06-22T00:28:07;12.90;;;11.05;;
63975;SDS011;50167;47.958;21.780;2023-06-22T00:30:34;13.15;;;9.73;;
63975;SDS011;50167;47.958;21.780;2023-06-22T00:33:00;14.83;;;11.45;;
63975;SDS011;50167;47.958;21.780;2023-06-22T00:35:27;15.15;;;10.40;;
63975;SDS011;50167;47.958;21.780;2023-06-22T00:37:56;10.95;;;9.60;;
63975;SDS011;50167;47.958;21.780;2023-06-22T00:40:27;11.48;;;10.30;;
63975;SDS011;50167;47.958;21.780;2023-06-22T00:42:56;12.35;;;11.05;;
63975;SDS011;50167;47.958;21.780;2023-06-22T00:45:23;12.33;;;10.08;;
63975;SDS011;50167;47.958;21.780;2023-06-22T00:47:51;15.45;;;10.08;;
63975;SDS011;50167;47.958;21.780;2023-06-22T00:50:21;15.83;;;11.08;;
63975;SDS011;50167;47.958;21.780;2023-06-22T00:52:54;17.60;;;11.40;;
63975;SDS011;50167;47.958;21.780;2023-06-22T00:55:23;13.20;;;10.63;;
63975;SDS011;50167;47.958;21.780;2023-06-22T00:57:51;12.10;;;10.40;;
63975;SDS011;50167;47.958;21.780;2023-06-22T01:00:25;12.25;;;10.85;;
63975;SDS011;50167;47.958;21.780;2023-06-22T01:02:52;13.58;;;11.43;;
63975;SDS011;50167;47.958;21.780;2023-06-22T01:05:19;12.55;;;10.35;;
63975;SDS011;50167;47.958;21.780;2023-06-22T01:10:54;19.10;;;10.55;;
63975;SDS011;50167;47.958;21.780;2023-06-22T01:16:15;11.80;;;9.90;;
63975;SDS011;50167;47.958;21.780;2023-06-22T01:18:44;12.55;;;10.23;;
63975;SDS011;50167;47.958;21.780;2023-06-22T01:21:14;18.15;;;10.13;;
63975;SDS011;50167;47.958;21.780;2023-06-22T01:23:50;11.08;;;9.90;;
63975;SDS011;50167;47.958;21.780;2023-06-22T01:26:38;14.20;;;9.70;;
63975;SDS011;50167;47.958;21.780;2023-06-22T01:29:10;14.03;;;10.60;;
63975;SDS011;50167;47.958;21.780;2023-06-22T01:31:39;12.55;;;9.65;;
63975;SDS011;50167;47.958;21.780;2023-06-22T01:34:08;13.32;;;10.25;;
63975;SDS011;50167;47.958;21.780;2023-06-22T01:36:35;15.88;;;10.00;;
63975;SDS011;50167;47.958;21.780;2023-06-22T01:39:02;19.20;;;9.98;;
63975;SDS011;50167;47.958;21.780;2023-06-22T01:41:33;12.82;;;10.88;;
63975;SDS011;50167;47.958;21.780;2023-06-22T01:44:05;12.90;;;10.00;;
63975;SDS011;50167;47.958;21.780;2023-06-22T01:46:38;17.55;;;11.08;;
63975;SDS011;50167;47.958;21.780;2023-06-22T01:49:02;15.85;;;10.60;;
63975;SDS011;50167;47.958;21.780;2023-06-22T01:51:30;12.18;;;9.93;;
63975;SDS011;50167;47.958;21.780;2023-06-22T01:53:56;17.27;;;10.70;;
63975;SDS011;50167;47.958;21.780;2023-06-22T01:56:23;13.88;;;11.68;;
63975;SDS011;50167;47.958;21.780;2023-06-22T01:59:01;14.53;;;10.40;;
63975;SDS011;50167;47.958;21.780;2023-06-22T02:01:50;13.03;;;10.25;;
63975;SDS011;50167;47.958;21.780;2023-06-22T02:04:41;17.85;;;12.07;;
63975;SDS011;50167;47.958;21.780;2023-06-22T02:07:15;13.32;;;11.63;;
63975;SDS011;50167;47.958;21.780;2023-06-22T02:09:45;12.88;;;11.48;;
63975;SDS011;50167;47.958;21.780;2023-06-22T02:12:18;19.55;;;10.98;;
63975;SDS011;50167;47.958;21.780;2023-06-22T02:14:45;14.87;;;12.37;;
63975;SDS011;50167;47.958;21.780;2023-06-22T02:17:12;13.88;;;11.75;;
63975;SDS011;50167;47.958;21.780;2023-06-22T02:19:42;18.20;;;11.97;;
63975;SDS011;50167;47.958;21.780;2023-06-22T02:22:09;16.30;;;11.63;;
63975;SDS011;50167;47.958;21.780;2023-06-22T02:24:35;13.28;;;11.97;;
63975;SDS011;50167;47.958;21.780;2023-06-22T02:27:02;13.55;;;10.93;;
63975;SDS011;50167;47.958;21.780;2023-06-22T02:29:29;14.83;;;11.10;;
63975;SDS011;50167;47.958;21.780;2023-06-22T02:31:56;14.25;;;11.10;;
63975;SDS011;50167;47.958;21.780;2023-06-22T02:34:22;13.43;;;10.82;;
63975;SDS011;50167;47.958;21.780;2023-06-22T02:36:48;16.07;;;11.88;;
63975;SDS011;50167;47.958;21.780;2023-06-22T02:39:23;17.75;;;11.33;;
63975;SDS011;50167;47.958;21.780;2023-06-22T02:41:48;13.50;;;12.20;;
63975;SDS011;50167;47.958;21.780;2023-06-22T02:44:18;15.68;;;11.57;;
63975;SDS011;50167;47.958;21.780;2023-06-22T02:46:45;14.87;;;11.60;;
63975;SDS011;50167;47.958;21.780;2023-06-22T02:49:12;16.27;;;12.45;;
63975;SDS011;50167;47.958;21.780;2023-06-22T02:51:44;16.80;;;12.60;;
63975;SDS011;50167;47.958;21.780;2023-06-22T02:54:14;17.77;;;12.03;;
63975;SDS011;50167;47.958;21.780;2023-06-22T02:56:42;14.23;;;11.38;;
63975;SDS011;50167;47.958;21.780;2023-06-22T02:59:10;19.70;;;12.43;;
63975;SDS011;50167;47.958;21.780;2023-06-22T03:01:37;16.82;;;12.70;;
63975;SDS011;50167;47.958;21.780;2023-06-22T03:04:06;14.35;;;12.60;;
63975;SDS011;50167;47.958;21.780;2023-06-22T03:06:33;16.95;;;12.18;;
63975;SDS011;50167;47.958;21.780;2023-06-22T03:09:01;18.25;;;12.55;;
63975;SDS011;50167;47.958;21.780;2023-06-22T03:11:33;14.75;;;12.00;;
63975;SDS011;50167;47.958;21.780;2023-06-22T03:14:00;15.70;;;12.93;;
63975;SDS011;50167;47.958;21.780;2023-06-22T03:16:27;16.40;;;12.15;;
63975;SDS011;50167;47.958;21.780;2023-06-22T03:18:54;14.00;;;11.10;;
63975;SDS011;50167;47.958;21.780;2023-06-22T03:21:25;20.80;;;13.60;;
63975;SDS011;50167;47.958;21.780;2023-06-22T03:23:54;15.80;;;12.43;;
63975;SDS011;50167;47.958;21.780;2023-06-22T03:26:21;17.90;;;12.30;;
63975;SDS011;50167;47.958;21.780;2023-06-22T03:28:48;16.80;;;12.98;;
63975;SDS011;50167;47.958;21.780;2023-06-22T03:31:15;12.78;;;11.28;;
63975;SDS011;50167;47.958;21.780;2023-06-22T03:33:41;15.13;;;12.25;;
63975;SDS011;50167;47.958;21.780;2023-06-22T03:36:07;14.93;;;12.05;;
63975;SDS011;50167;47.958;21.780;2023-06-22T03:38:33;18.60;;;11.93;;
63975;SDS011;50167;47.958;21.780;2023-06-22T03:41:00;17.62;;;13.13;;
63975;SDS011;50167;47.958;21.780;2023-06-22T03:43:26;25.88;;;13.55;;
63975;SDS011;50167;47.958;21.780;2023-06-22T03:45:52;14.65;;;12.30;;
63975;SDS011;50167;47.958;21.780;2023-06-22T03:48:19;17.67;;;13.22;;
63975;SDS011;50167;47.958;21.780;2023-06-22T03:50:45;19.37;;;14.28;;
63975;SDS011;50167;47.958;21.780;2023-06-22T03:53:11;18.20;;;14.68;;
63975;SDS011;50167;47.958;21.780;2023-06-22T03:55:40;18.87;;;14.85;;
63975;SDS011;50167;47.958;21.780;2023-06-22T03:58:16;16.97;;;13.78;;
63975;SDS011;50167;47.958;21.780;2023-06-22T04:00:47;15.40;;;13.75;;
63975;SDS011;50167;47.958;21.780;2023-06-22T04:03:16;20.08;;;13.78;;
63975;SDS011;50167;47.958;21.780;2023-06-22T04:05:46;19.48;;;13.85;;
63975;SDS011;50167;47.958;21.780;2023-06-22T04:08:14;15.08;;;13.53;;
63975;SDS011;50167;47.958;21.780;2023-06-22T04:10:41;17.95;;;12.60;;
63975;SDS011;50167;47.958;21.780;2023-06-22T04:13:07;18.55;;;15.13;;
63975;SDS011;50167;47.958;21.780;2023-06-22T04:15:34;21.15;;;13.20;;
63975;SDS011;50167;47.958;21.780;2023-06-22T04:18:00;16.02;;;13.75;;
63975;SDS011;50167;47.958;21.780;2023-06-22T04:20:26;15.55;;;13.20;;
63975;SDS011;50167;47.958;21.780;2023-06-22T04:22:53;16.02;;;13.75;;
63975;SDS011;50167;47.958;21.780;2023-06-22T04:25:19;17.20;;;14.13;;
63975;SDS011;50167;47.958;21.780;2023-06-22T04:27:48;16.93;;;12.23;;
63975;SDS011;50167;47.958;21.780;2023-06-22T04:30:14;32.88;;;14.38;;
63975;SDS011;50167;47.958;21.780;2023-06-22T04:32:41;20.80;;;12.88;;
63975;SDS011;50167;47.958;21.780;2023-06-22T04:35:09;20.97;;;13.35;;
63975;SDS011;50167;47.958;21.780;2023-06-22T04:37:36;20.05;;;13.22;;
63975;SDS011;50167;47.958;21.780;2023-06-22T04:40:05;18.02;;;14.33;;
63975;SDS011;50167;47.958;21.780;2023-06-22T04:42:34;17.82;;;13.00;;
63975;SDS011;50167;47.958;21.780;2023-06-22T04:45:02;19.95;;;13.88;;
63975;SDS011;50167;47.958;21.780;2023-06-22T04:47:30;18.73;;;13.90;;
63975;SDS011;50167;47.958;21.780;2023-06-22T04:49:56;17.98;;;13.60;;
63975;SDS011;50167;47.958;21.780;2023-06-22T04:52:22;25.05;;;14.20;;
63975;SDS011;50167;47.958;21.780;2023-06-22T04:54:50;18.90;;;13.45;;
63975;SDS011;50167;47.958;21.780;2023-06-22T04:57:21;19.95;;;13.80;;
63975;SDS011;50167;47.958;21.780;2023-06-22T04:59:49;16.42;;;13.60;;
63975;SDS011;50167;47.958;21.780;2023-06-22T05:02:15;19.75;;;12.20;;
63975;SDS011;50167;47.958;21.780;2023-06-22T05:04:41;15.58;;;14.00;;
63975;SDS011;50167;47.958;21.780;2023-06-22T05:07:07;15.60;;;12.18;;
63975;SDS011;50167;47.958;21.780;2023-06-22T05:09:34;15.72;;;14.10;;
63975;SDS011;50167;47.958;21.780;2023-06-22T05:12:00;16.48;;;13.38;;
63975;SDS011;50167;47.958;21.780;2023-06-22T05:14:28;20.23;;;14.33;;
63975;SDS011;50167;47.958;21.780;2023-06-22T05:16:55;17.45;;;14.63;;
63975;SDS011;50167;47.958;21.780;2023-06-22T05:19:23;17.27;;;14.25;;
63975;SDS011;50167;47.958;21.780;2023-06-22T05:21:52;23.18;;;15.85;;
63975;SDS011;50167;47.958;21.780;2023-06-22T05:24:18;18.55;;;14.43;;
63975;SDS011;50167;47.958;21.780;2023-06-22T05:26:44;24.25;;;13.95;;
63975;SDS011;50167;47.958;21.780;2023-06-22T05:29:10;18.77;;;15.15;;
63975;SDS011;50167;47.958;21.780;2023-06-22T05:31:37;22.50;;;12.75;;
63975;SDS011;50167;47.958;21.780;2023-06-22T05:34:03;25.17;;;15.45;;
63975;SDS011;50167;47.958;21.780;2023-06-22T05:36:29;15.72;;;13.28;;
63975;SDS011;50167;47.958;21.780;2023-06-22T05:38:56;26.33;;;14.18;;
63975;SDS011;50167;47.958;21.780;2023-06-22T05:41:23;17.50;;;14.00;;
63975;SDS011;50167;47.958;21.780;2023-06-22T05:43:51;21.87;;;15.30;;
63975;SDS011;50167;47.958;21.780;2023-06-22T05:46:17;17.30;;;12.73;;
63975;SDS011;50167;47.958;21.780;2023-06-22T05:48:44;17.02;;;13.98;;
63975;SDS011;50167;47.958;21.780;2023-06-22T05:51:11;16.60;;;14.75;;
63975;SDS011;50167;47.958;21.780;2023-06-22T05:53:37;16.77;;;13.50;;
63975;SDS011;50167;47.958;21.780;2023-06-22T05:58:54;19.05;;;13.72;;
63975;SDS011;50167;47.958;21.780;2023-06-22T06:01:20;15.10;;;12.98;;
63975;SDS011;50167;47.958;21.780;2023-06-22T06:03:47;19.87;;;12.90;;
63975;SDS011;50167;47.958;21.780;2023-06-22T06:06:15;15.25;;;13.68;;
63975;SDS011;50167;47.958;21.780;2023-06-22T06:08:42;16.27;;;13.10;;
63975;SDS011;50167;47.958;21.780;2023-06-22T06:11:08;16.30;;;13.90;;
63975;SDS011;50167;47.958;21.780;2023-06-22T06:13:34;21.73;;;14.30;;
63975;SDS011;50167;47.958;21.780;2023-06-22T06:16:00;20.60;;;13.60;;
63975;SDS011;50167;47.958;21.780;2023-06-22T06:18:26;17.50;;;13.05;;
63975;SDS011;50167;47.958;21.780;2023-06-22T06:20:53;15.68;;;13.00;;
63975;SDS011;50167;47.958;21.780;2023-06-22T06:23:19;21.12;;;14.90;;
63975;SDS011;50167;47.958;21.780;2023-06-22T06:25:45;31.23;;;13.75;;
63975;SDS011;50167;47.958;21.780;2023-06-22T06:28:11;14.75;;;13.20;;
63975;SDS011;50167;47.958;21.780;2023-06-22T06:30:38;35.48;;;15.85;;
63975;SDS011;50167;47.958;21.780;2023-06-22T06:33:04;18.70;;;12.63;;
63975;SDS011;50167;47.958;21.780;2023-06-22T06:35:32;28.73;;;14.00;;
63975;SDS011;50167;47.958;21.780;2023-06-22T06:37:58;19.62;;;13.70;;
63975;SDS011;50167;47.958;21.780;2023-06-22T06:40:24;23.42;;;13.93;;
63975;SDS011;50167;47.958;21.780;2023-06-22T06:42:50;23.30;;;13.98;;
63975;SDS011;50167;47.958;21.780;2023-06-22T06:45:18;19.45;;;14.13;;
63975;SDS011;50167;47.958;21.780;2023-06-22T06:47:48;16.20;;;12.15;;
63975;SDS011;50167;47.958;21.780;2023-06-22T06:50:16;24.02;;;13.30;;
63975;SDS011;50167;47.958;21.780;2023-06-22T06:52:43;22.35;;;13.00;;
63975;SDS011;50167;47.958;21.780;2023-06-22T06:55:10;28.57;;;15.15;;
63975;SDS011;50167;47.958;21.780;2023-06-22T06:57:40;20.77;;;12.30;;
63975;SDS011;50167;47.958;21.780;2023-06-22T07:00:08;16.05;;;11.68;;
63975;SDS011;50167;47.958;21.780;2023-06-22T07:02:38;21.20;;;13.60;;
63975;SDS011;50167;47.958;21.780;2023-06-22T07:05:05;19.92;;;13.13;;
63975;SDS011;50167;47.958;21.780;2023-06-22T07:07:32;19.02;;;12.88;;
63975;SDS011;50167;47.958;21.780;2023-06-22T07:09:58;19.57;;;13.95;;
63975;SDS011;50167;47.958;21.780;2023-06-22T07:12:25;14.05;;;11.43;;
63975;SDS011;50167;47.958;21.780;2023-06-22T07:14:51;15.78;;;13.30;;
63975;SDS011;50167;47.958;21.780;2023-06-22T07:17:19;21.35;;;13.50;;
63975;SDS011;50167;47.958;21.780;2023-06-22T07:19:45;18.02;;;12.93;;
63975;SDS011;50167;47.958;21.780;2023-06-22T07:22:11;15.98;;;14.30;;
63975;SDS011;50167;47.958;21.780;2023-06-22T07:24:37;15.23;;;12.20;;
63975;SDS011;50167;47.958;21.780;2023-06-22T07:27:03;14.50;;;12.43;;
63975;SDS011;50167;47.958;21.780;2023-06-22T07:29:32;14.83;;;12.95;;
63975;SDS011;50167;47.958;21.780;2023-06-22T07:31:58;18.00;;;13.68;;
63975;SDS011;50167;47.958;21.780;2023-06-22T07:34:26;16.75;;;12.33;;
63975;SDS011;50167;47.958;21.780;2023-06-22T07:36:52;19.20;;;13.30;;
63975;SDS011;50167;47.958;21.780;2023-06-22T07:39:18;19.32;;;14.05;;
63975;SDS011;50167;47.958;21.780;2023-06-22T07:41:46;18.95;;;12.53;;
63975;SDS011;50167;47.958;21.780;2023-06-22T07:44:12;15.58;;;12.05;;
63975;SDS011;50167;47.958;21.780;2023-06-22T07:46:38;18.85;;;12.63;;
63975;SDS011;50167;47.958;21.780;2023-06-22T07:49:05;19.48;;;12.80;;
63975;SDS011;50167;47.958;21.780;2023-06-22T07:51:33;15.80;;;12.20;;
63975;SDS011;50167;47.958;21.780;2023-06-22T07:54:00;17.65;;;12.58;;
63975;SDS011;50167;47.958;21.780;2023-06-22T07:56:26;17.98;;;12.18;;
63975;SDS011;50167;47.958;21.780;2023-06-22T07:58:52;21.68;;;12.78;;
63975;SDS011;50167;47.958;21.780;2023-06-22T08:01:18;13.78;;;12.03;;
63975;SDS011;50167;47.958;21.780;2023-06-22T08:03:47;14.28;;;12.78;;
63975;SDS011;50167;47.958;21.780;2023-06-22T08:06:14;21.62;;;13.45;;
63975;SDS011;50167;47.958;21.780;2023-06-22T08:08:41;14.50;;;11.83;;
63975;SDS011;50167;47.958;21.780;2023-06-22T08:11:08;15.53;;;11.83;;
63975;SDS011;50167;47.958;21.780;2023-06-22T08:13:35;17.87;;;12.30;;
63975;SDS011;50167;47.958;21.780;2023-06-22T08:16:01;17.37;;;12.15;;
63975;SDS011;50167;47.958;21.780;2023-06-22T08:18:27;14.43;;;11.88;;
63975;SDS011;50167;47.958;21.780;2023-06-22T08:20:54;14.23;;;12.88;;
63975;SDS011;50167;47.958;21.780;2023-06-22T08:23:20;17.48;;;12.37;;
63975;SDS011;50167;47.958;21.780;2023-06-22T08:25:46;16.37;;;13.25;;
63975;SDS011;50167;47.958;21.780;2023-06-22T08:28:13;16.90;;;11.28;;
63975;SDS011;50167;47.958;21.780;2023-06-22T08:30:39;14.50;;;13.00;;
63975;SDS011;50167;47.958;21.780;2023-06-22T08:33:05;13.60;;;12.30;;
63975;SDS011;50167;47.958;21.780;2023-06-22T08:35:32;18.77;;;12.07;;
63975;SDS011;50167;47.958;21.780;2023-06-22T08:37:58;13.93;;;12.00;;
63975;SDS011;50167;47.958;21.780;2023-06-22T08:40:25;19.77;;;11.15;;
63975;SDS011;50167;47.958;21.780;2023-06-22T08:42:52;25.23;;;13.95;;
63975;SDS011;50167;47.958;21.780;2023-06-22T08:45:18;17.50;;;14.25;;
63975;SDS011;50167;47.958;21.780;2023-06-22T08:47:45;15.65;;;12.58;;
63975;SDS011;50167;47.958;21.780;2023-06-22T08:50:11;20.90;;;12.70;;
63975;SDS011;50167;47.958;21.780;2023-06-22T08:52:39;13.85;;;12.43;;
63975;SDS011;50167;47.958;21.780;2023-06-22T08:55:09;13.05;;;11.68;;
63975;SDS011;50167;47.958;21.780;2023-06-22T08:57:36;14.95;;;11.83;;
63975;SDS011;50167;47.958;21.780;2023-06-22T09:00:05;12.75;;;11.15;;
63975;SDS011;50167;47.958;21.780;2023-06-22T09:02:39;15.70;;;12.58;;
63975;SDS011;50167;47.958;21.780;2023-06-22T09:05:05;15.45;;;11.20;;
63975;SDS011;50167;47.958;21.780;2023-06-22T09:07:32;15.45;;;12.45;;
63975;SDS011;50167;47.958;21.780;2023-06-22T09:09:59;17.00;;;12.82;;
63975;SDS011;50167;47.958;21.780;2023-06-22T09:12:26;17.90;;;12.82;;
63975;SDS011;50167;47.958;21.780;2023-06-22T09:14:53;16.52;;;12.55;;
63975;SDS011;50167;47.958;21.780;2023-06-22T09:17:19;15.38;;;12.15;;
63975;SDS011;50167;47.958;21.780;2023-06-22T09:19:45;12.58;;;11.30;;
63975;SDS011;50167;47.958;21.780;2023-06-22T09:22:12;16.07;;;12.15;;
63975;SDS011;50167;47.958;21.780;2023-06-22T09:24:39;12.73;;;11.45;;
63975;SDS011;50167;47.958;21.780;2023-06-22T09:27:05;15.88;;;13.00;;
63975;SDS011;50167;47.958;21.780;2023-06-22T09:29:32;13.60;;;11.78;;
63975;SDS011;50167;47.958;21.780;2023-06-22T09:32:01;12.98;;;11.53;;
63975;SDS011;50167;47.958;21.780;2023-06-22T09:34:27;12.37;;;10.50;;
63975;SDS011;50167;47.958;21.780;2023-06-22T09:36:54;16.07;;;11.65;;
63975;SDS011;50167;47.958;21.780;2023-06-22T09:39:20;12.07;;;10.88;;
63975;SDS011;50167;47.958;21.780;2023-06-22T09:41:46;12.73;;;11.40;;
63975;SDS011;50167;47.958;21.780;2023-06-22T09:44:13;12.20;;;10.70;;
63975;SDS011;50167;47.958;21.780;2023-06-22T09:46:39;15.68;;;10.78;;
63975;SDS011;50167;47.958;21.780;2023-06-22T09:49:05;11.95;;;10.30;;
63975;SDS011;50167;47.958;21.780;2023-06-22T09:51:32;12.25;;;11.05;;
63975;SDS011;50167;47.958;21.780;2023-06-22T09:53:58;11.93;;;10.58;;
63975;SDS011;50167;47.958;21.780;2023-06-22T09:56:24;15.20;;;10.48;;
63975;SDS011;50167;47.958;21.780;2023-06-22T09:58:52;14.95;;;11.60;;
63975;SDS011;50167;47.958;21.780;2023-06-22T10:01:18;14.07;;;10.40;;
63975;SDS011;50167;47.958;21.780;2023-06-22T10:03:46;13.70;;;10.48;;
63975;SDS011;50167;47.958;21.780;2023-06-22T10:06:12;12.00;;;10.80;;
63975;SDS011;50167;47.958;21.780;2023-06-22T10:08:39;12.55;;;10.93;;
63975;SDS011;50167;47.958;21.780;2023-06-22T10:11:06;13.70;;;11.12;;
63975;SDS011;50167;47.958;21.780;2023-06-22T10:13:32;11.45;;;9.85;;
63975;SDS011;50167;47.958;21.780;2023-06-22T10:15:58;14.13;;;10.53;;
63975;SDS011;50167;47.958;21.780;2023-06-22T10:18:24;10.98;;;9.88;;
63975;SDS011;50167;47.958;21.780;2023-06-22T10:20:50;15.13;;;11.63;;
63975;SDS011;50167;47.958;21.780;2023-06-22T10:23:17;11.63;;;10.43;;
63975;SDS011;50167;47.958;21.780;2023-06-22T10:25:47;12.73;;;10.93;;
63975;SDS011;50167;47.958;21.780;2023-06-22T10:28:13;14.87;;;11.35;;
63975;SDS011;50167;47.958;21.780;2023-06-22T10:30:40;12.47;;;11.10;;
63975;SDS011;50167;47.958;21.780;2023-06-22T10:37:26;11.28;;;10.10;;
63975;SDS011;50167;47.958;21.780;2023-06-22T10:39:52;12.18;;;9.88;;
63975;SDS011;50167;47.958;21.780;2023-06-22T10:42:19;13.45;;;10.18;;
63975;SDS011;50167;47.958;21.780;2023-06-22T10:44:45;16.25;;;10.68;;
63975;SDS011;50167;47.958;21.780;2023-06-22T10:47:11;12.68;;;9.88;;
63975;SDS011;50167;47.958;21.780;2023-06-22T10:49:38;11.30;;;9.65;;
63975;SDS011;50167;47.958;21.780;2023-06-22T10:52:08;10.48;;;9.33;;
63975;SDS011;50167;47.958;21.780;2023-06-22T10:54:35;18.27;;;8.95;;
63975;SDS011;50167;47.958;21.780;2023-06-22T10:57:02;16.67;;;10.55;;
63975;SDS011;50167;47.958;21.780;2023-06-22T10:59:29;12.40;;;10.45;;
63975;SDS011;50167;47.958;21.780;2023-06-22T11:01:56;11.68;;;10.48;;
63975;SDS011;50167;47.958;21.780;2023-06-22T11:04:23;10.85;;;9.78;;
63975;SDS011;50167;47.958;21.780;2023-06-22T11:06:49;10.95;;;9.90;;
63975;SDS011;50167;47.958;21.780;2023-06-22T11:09:17;10.82;;;9.28;;
63975;SDS011;50167;47.958;21.780;2023-06-22T11:11:46;12.07;;;9.35;;
63975;SDS011;50167;47.958;21.780;2023-06-22T11:14:14;15.85;;;10.40;;
63975;SDS011;50167;47.958;21.780;2023-06-22T11:16:41;10.03;;;8.80;;
63975;SDS011;50167;47.958;21.780;2023-06-22T11:19:07;13.25;;;9.55;;
63975;SDS011;50167;47.958;21.780;2023-06-22T11:21:33;18.82;;;9.85;;
63975;SDS011;50167;47.958;21.780;2023-06-22T11:24:00;13.35;;;8.80;;
63975;SDS011;50167;47.958;21.780;2023-06-22T11:26:26;12.18;;;10.20;;
63975;SDS011;50167;47.958;21.780;2023-06-22T11:28:53;10.03;;;9.08;;
63975;SDS011;50167;47.958;21.780;2023-06-22T11:31:19;10.65;;;9.58;;
63975;SDS011;50167;47.958;21.780;2023-06-22T11:33:45;10.82;;;9.18;;
63975;SDS011;50167;47.958;21.780;2023-06-22T11:36:13;12.98;;;9.80;;
63975;SDS011;50167;47.958;21.780;2023-06-22T11:38:41;15.25;;;9.53;;
63975;SDS011;50167;47.958;21.780;2023-06-22T11:41:08;17.35;;;9.33;;
63975;SDS011;50167;47.958;21.780;2023-06-22T11:43:36;12.80;;;8.38;;
63975;SDS011;50167;47.958;21.780;2023-06-22T11:46:03;16.55;;;8.10;;
63975;SDS011;50167;47.958;21.780;2023-06-22T11:48:30;15.03;;;8.98;;
63975;SDS011;50167;47.958;21.780;2023-06-22T11:50:56;11.73;;;8.73;;
63975;SDS011;50167;47.958;21.780;2023-06-22T11:53:24;11.15;;;8.65;;
63975;SDS011;50167;47.958;21.780;2023-06-22T11:55:52;12.78;;;8.33;;
63975;SDS011;50167;47.958;21.780;2023-06-22T11:58:19;10.18;;;9.03;;
63975;SDS011;50167;47.958;21.780;2023-06-22T12:00:46;11.03;;;8.95;;
63975;SDS011;50167;47.958;21.780;2023-06-22T12:03:13;11.73;;;8.53;;
63975;SDS011;50167;47.958;21.780;2023-06-22T12:05:40;14.70;;;8.83;;
63975;SDS011;50167;47.958;21.780;2023-06-22T12:08:06;8.65;;;7.60;;
63975;SDS011;50167;47.958;21.780;2023-06-22T12:10:33;11.75;;;9.13;;
63975;SDS011;50167;47.958;21.780;2023-06-22T12:12:59;9.60;;;8.65;;
63975;SDS011;50167;47.958;21.780;2023-06-22T12:15:26;16.00;;;8.25;;
63975;SDS011;50167;47.958;21.780;2023-06-22T12:17:53;11.12;;;8.33;;
63975;SDS011;50167;47.958;21.780;2023-06-22T12:20:19;9.30;;;8.50;;
63975;SDS011;50167;47.958;21.780;2023-06-22T12:22:45;10.13;;;8.15;;
63975;SDS011;50167;47.958;21.780;2023-06-22T12:25:13;12.13;;;7.62;;
63975;SDS011;50167;47.958;21.780;2023-06-22T12:27:39;10.05;;;9.03;;
63975;SDS011;50167;47.958;21.780;2023-06-22T12:30:06;11.30;;;8.83;;
63975;SDS011;50167;47.958;21.780;2023-06-22T12:32:32;9.53;;;8.53;;
63975;SDS011;50167;47.958;21.780;2023-06-22T12:34:58;10.13;;;8.35;;
63975;SDS011;50167;47.958;21.780;2023-06-22T12:37:25;9.18;;;8.28;;
63975;SDS011;50167;47.958;21.780;2023-06-22T12:39:51;16.10;;;9.05;;
63975;SDS011;50167;47.958;21.780;2023-06-22T12:42:18;14.00;;;8.00;;
63975;SDS011;50167;47.958;21.780;2023-06-22T12:44:46;10.38;;;9.38;;
63975;SDS011;50167;47.958;21.780;2023-06-22T12:47:12;16.25;;;8.53;;
63975;SDS011;50167;47.958;21.780;2023-06-22T12:49:39;11.68;;;9.13;;
63975;SDS011;50167;47.958;21.780;2023-06-22T12:52:09;12.43;;;9.00;;
63975;SDS011;50167;47.958;21.780;2023-06-22T12:54:36;12.45;;;9.28;;
63975;SDS011;50167;47.958;21.780;2023-06-22T12:57:03;14.68;;;9.43;;
63975;SDS011;50167;47.958;21.780;2023-06-22T12:59:29;14.40;;;9.20;;
63975;SDS011;50167;47.958;21.780;2023-06-22T13:01:55;15.93;;;9.15;;
63975;SDS011;50167;47.958;21.780;2023-06-22T13:04:22;10.30;;;8.15;;
63975;SDS011;50167;47.958;21.780;2023-06-22T13:06:48;15.00;;;9.18;;
63975;SDS011;50167;47.958;21.780;2023-06-22T13:09:15;14.70;;;8.83;;
63975;SDS011;50167;47.958;21.780;2023-06-22T13:11:43;12.25;;;8.18;;
63975;SDS011;50167;47.958;21.780;2023-06-22T13:14:09;12.18;;;8.18;;
63975;SDS011;50167;47.958;21.780;2023-06-22T13:16:35;17.45;;;8.65;;
63975;SDS011;50167;47.958;21.780;2023-06-22T13:19:02;9.23;;;8.33;;
63975;SDS011;50167;47.958;21.780;2023-06-22T13:21:28;11.00;;;8.55;;
63975;SDS011;50167;47.958;21.780;2023-06-22T13:23:56;15.40;;;7.62;;
63975;SDS011;50167;47.958;21.780;2023-06-22T13:26:22;9.48;;;7.78;;
63975;SDS011;50167;47.958;21.780;2023-06-22T13:28:48;22.13;;;7.97;;
63975;SDS011;50167;47.958;21.780;2023-06-22T13:31:14;10.80;;;7.58;;
63975;SDS011;50167;47.958;21.780;2023-06-22T13:33:40;12.13;;;7.55;;
63975;SDS011;50167;47.958;21.780;2023-06-22T13:36:07;18.87;;;7.83;;
63975;SDS011;50167;47.958;21.780;2023-06-22T13:38:35;10.93;;;7.47;;
63975;SDS011;50167;47.958;21.780;2023-06-22T13:41:03;13.53;;;7.28;;
63975;SDS011;50167;47.958;21.780;2023-06-22T13:43:30;12.30;;;7.25;;
63975;SDS011;50167;47.958;21.780;2023-06-22T13:45:58;10.20;;;8.85;;
63975;SDS011;50167;47.958;21.780;2023-06-22T13:48:24;12.40;;;8.83;;
63975;SDS011;50167;47.958;21.780;2023-06-22T13:50:51;10.65;;;7.65;;
63975;SDS011;50167;47.958;21.780;2023-06-22T13:53:18;11.10;;;7.30;;
63975;SDS011;50167;47.958;21.780;2023-06-22T13:55:44;13.10;;;7.83;;
63975;SDS011;50167;47.958;21.780;2023-06-22T13:58:12;15.60;;;7.25;;
63975;SDS011;50167;47.958;21.780;2023-06-22T14:00:38;9.85;;;7.25;;
63975;SDS011;50167;47.958;21.780;2023-06-22T14:03:04;9.80;;;7.75;;
63975;SDS011;50167;47.958;21.780;2023-06-22T14:05:30;17.10;;;7.97;;
63975;SDS011;50167;47.958;21.780;2023-06-22T14:07:56;12.15;;;8.15;;
63975;SDS011;50167;47.958;21.780;2023-06-22T14:10:23;9.60;;;7.35;;
63975;SDS011;50167;47.958;21.780;2023-06-22T14:12:49;19.45;;;8.93;;
63975;SDS011;50167;47.958;21.780;2023-06-22T14:15:15;8.78;;;7.53;;
63975;SDS011;50167;47.958;21.780;2023-06-22T14:17:43;11.73;;;7.60;;
63975;SDS011;50167;47.958;21.780;2023-06-22T14:20:09;12.10;;;7.33;;
63975;SDS011;50167;47.958;21.780;2023-06-22T14:22:36;10.95;;;7.60;;
63975;SDS011;50167;47.958;21.780;2023-06-22T14:25:04;10.85;;;8.08;;
63975;SDS011;50167;47.958;21.780;2023-06-22T14:27:31;17.15;;;7.37;;